Other Surface Observations
Issued by NWS Missoula, MT

Home | Current Version | Previous Version | Text Only | Print | Product List | Glossary On
Versions: 1 2 3 4 5 6 7 8 9 10 11 12 13 14 15 16 17 18 19 20 21 22 23 24 25 26 27 28 29 30 31 32 33 34 35 36 37 38 39 40 41 42 43 44 45 46 47 48 49 50
558
SXUS55 KMSO 080443
OSOMSO
MONTANA AWOS SUMMARY
NATIONAL WEATHER SERVICE MISSOULA MT
943 PM MST SUN FEB 7 2016

Montana AWOS Reports

LAUREL      |K6S8 080435Z AUTO 00000KT 40SM 01/M13 A3038 RMK AO1 T00061127
ROUNDUP     |KRPX 080435Z AUTO 00000KT 40SM M02/M13 A3031 RMK AO1 T10211132
TWIN BRIDGES|K7S1 080435Z AUTO 00000KT 40SM 00/M07 A3046 RMK AO1 T00001071




USA.gov is the U.S. government's official web portal to all federal, state and local government web resources and services.